sensor_id;sensor_type;location;lat;lon;timestamp;temperature;humidity
17370;DHT22;8802;52.402;4.920;2024-03-08T00:01:00;8.00;99.90
17370;DHT22;8802;52.402;4.920;2024-03-08T00:03:27;8.00;99.90
17370;DHT22;8802;52.402;4.920;2024-03-08T00:05:54;8.00;99.90
17370;DHT22;8802;52.402;4.920;2024-03-08T00:08:21;8.00;99.90
17370;DHT22;8802;52.402;4.920;2024-03-08T00:10:48;8.00;99.90
17370;DHT22;8802;52.402;4.920;2024-03-08T00:13:15;8.00;99.90
17370;DHT22;8802;52.402;4.920;2024-03-08T00:15:42;8.00;99.90
17370;DHT22;8802;52.402;4.920;2024-03-08T00:18:10;8.00;99.90
17370;DHT22;8802;52.402;4.920;2024-03-08T00:20:37;8.00;99.90
17370;DHT22;8802;52.402;4.920;2024-03-08T00:23:04;8.00;99.90
17370;DHT22;8802;52.402;4.920;2024-03-08T00:25:31;8.00;99.90
17370;DHT22;8802;52.402;4.920;2024-03-08T00:27:59;8.00;99.90
17370;DHT22;8802;52.402;4.920;2024-03-08T00:30:26;8.00;99.90
17370;DHT22;8802;52.402;4.920;2024-03-08T00:32:53;8.00;99.90
17370;DHT22;8802;52.402;4.920;2024-03-08T00:35:22;8.00;99.90
17370;DHT22;8802;52.402;4.920;2024-03-08T00:37:49;8.00;99.90
17370;DHT22;8802;52.402;4.920;2024-03-08T00:40:16;8.00;99.90
17370;DHT22;8802;52.402;4.920;2024-03-08T00:42:43;8.00;99.90
17370;DHT22;8802;52.402;4.920;2024-03-08T00:45:10;8.00;99.90
17370;DHT22;8802;52.402;4.920;2024-03-08T00:47:38;7.90;99.90
17370;DHT22;8802;52.402;4.920;2024-03-08T00:50:05;7.90;99.90
17370;DHT22;8802;52.402;4.920;2024-03-08T00:52:35;7.90;99.90
17370;DHT22;8802;52.402;4.920;2024-03-08T00:55:02;7.90;99.90
17370;DHT22;8802;52.402;4.920;2024-03-08T00:57:29;7.90;99.90
17370;DHT22;8802;52.402;4.920;2024-03-08T00:59:56;7.90;99.90
17370;DHT22;8802;52.402;4.920;2024-03-08T01:02:23;7.90;99.90
17370;DHT22;8802;52.402;4.920;2024-03-08T01:04:50;7.90;99.90
17370;DHT22;8802;52.402;4.920;2024-03-08T01:07:17;7.90;99.90
17370;DHT22;8802;52.402;4.920;2024-03-08T01:09:46;7.90;99.90
17370;DHT22;8802;52.402;4.920;2024-03-08T01:12:12;7.90;99.90
17370;DHT22;8802;52.402;4.920;2024-03-08T01:14:40;7.80;99.90
17370;DHT22;8802;52.402;4.920;2024-03-08T01:17:07;7.80;99.90
17370;DHT22;8802;52.402;4.920;2024-03-08T01:19:35;7.80;99.90
17370;DHT22;8802;52.402;4.920;2024-03-08T01:22:02;7.80;99.90
17370;DHT22;8802;52.402;4.920;2024-03-08T01:24:29;7.80;99.90
17370;DHT22;8802;52.402;4.920;2024-03-08T01:26:57;7.80;99.90
17370;DHT22;8802;52.402;4.920;2024-03-08T01:29:24;7.80;99.90
17370;DHT22;8802;52.402;4.920;2024-03-08T01:31:51;7.70;99.90
17370;DHT22;8802;52.402;4.920;2024-03-08T01:34:19;7.70;99.90
17370;DHT22;8802;52.402;4.920;2024-03-08T01:36:46;7.70;99.90
17370;DHT22;8802;52.402;4.920;2024-03-08T01:39:13;7.70;99.90
17370;DHT22;8802;52.402;4.920;2024-03-08T01:41:40;7.70;99.90
17370;DHT22;8802;52.402;4.920;2024-03-08T01:44:08;7.70;99.90
17370;DHT22;8802;52.402;4.920;2024-03-08T01:46:35;7.70;99.90
17370;DHT22;8802;52.402;4.920;2024-03-08T01:49:03;7.60;99.90
17370;DHT22;8802;52.402;4.920;2024-03-08T01:51:30;7.60;99.90
17370;DHT22;8802;52.402;4.920;2024-03-08T01:53:58;7.60;99.90
17370;DHT22;8802;52.402;4.920;2024-03-08T01:56:27;7.60;99.90
17370;DHT22;8802;52.402;4.920;2024-03-08T01:58:54;7.60;99.90
17370;DHT22;8802;52.402;4.920;2024-03-08T02:01:23;7.60;99.90
17370;DHT22;8802;52.402;4.920;2024-03-08T02:03:50;7.60;99.90
17370;DHT22;8802;52.402;4.920;2024-03-08T02:06:17;7.60;99.90
17370;DHT22;8802;52.402;4.920;2024-03-08T02:08:45;7.50;99.90
17370;DHT22;8802;52.402;4.920;2024-03-08T02:11:12;7.50;99.90
17370;DHT22;8802;52.402;4.920;2024-03-08T02:13:39;7.50;99.90
17370;DHT22;8802;52.402;4.920;2024-03-08T02:16:06;7.50;99.90
17370;DHT22;8802;52.402;4.920;2024-03-08T02:18:35;7.50;99.90
17370;DHT22;8802;52.402;4.920;2024-03-08T02:21:04;7.50;99.90
17370;DHT22;8802;52.402;4.920;2024-03-08T02:23:32;7.50;99.90
17370;DHT22;8802;52.402;4.920;2024-03-08T02:25:59;7.30;99.90
17370;DHT22;8802;52.402;4.920;2024-03-08T02:28:26;7.40;99.90
17370;DHT22;8802;52.402;4.920;2024-03-08T02:30:53;7.40;99.90
17370;DHT22;8802;52.402;4.920;2024-03-08T02:33:21;7.50;99.90
17370;DHT22;8802;52.402;4.920;2024-03-08T02:35:49;7.40;99.90
17370;DHT22;8802;52.402;4.920;2024-03-08T02:38:19;7.40;99.90
17370;DHT22;8802;52.402;4.920;2024-03-08T02:40:47;7.40;99.90
17370;DHT22;8802;52.402;4.920;2024-03-08T02:43:14;7.40;99.90
17370;DHT22;8802;52.402;4.920;2024-03-08T02:45:42;7.40;99.90
17370;DHT22;8802;52.402;4.920;2024-03-08T02:48:09;7.40;99.90
17370;DHT22;8802;52.402;4.920;2024-03-08T02:50:37;7.30;99.90
17370;DHT22;8802;52.402;4.920;2024-03-08T02:53:05;7.30;99.90
17370;DHT22;8802;52.402;4.920;2024-03-08T02:55:34;7.30;99.90
17370;DHT22;8802;52.402;4.920;2024-03-08T02:58:01;7.30;99.90
17370;DHT22;8802;52.402;4.920;2024-03-08T03:00:30;7.30;99.90
17370;DHT22;8802;52.402;4.920;2024-03-08T03:02:58;7.30;99.90
17370;DHT22;8802;52.402;4.920;2024-03-08T03:05:25;7.30;99.90
17370;DHT22;8802;52.402;4.920;2024-03-08T03:07:52;7.30;99.90
17370;DHT22;8802;52.402;4.920;2024-03-08T03:10:19;7.30;99.90
17370;DHT22;8802;52.402;4.920;2024-03-08T03:12:48;7.30;99.90
17370;DHT22;8802;52.402;4.920;2024-03-08T03:15:15;7.20;99.90
17370;DHT22;8802;52.402;4.920;2024-03-08T03:17:46;7.20;99.90
17370;DHT22;8802;52.402;4.920;2024-03-08T03:20:13;7.20;99.90
17370;DHT22;8802;52.402;4.920;2024-03-08T03:22:48;7.20;99.90
17370;DHT22;8802;52.402;4.920;2024-03-08T03:25:17;7.20;99.90
17370;DHT22;8802;52.402;4.920;2024-03-08T03:27:51;7.20;99.90
17370;DHT22;8802;52.402;4.920;2024-03-08T03:30:18;7.20;99.90
17370;DHT22;8802;52.402;4.920;2024-03-08T03:32:48;7.20;99.90
17370;DHT22;8802;52.402;4.920;2024-03-08T03:35:16;7.20;99.90
17370;DHT22;8802;52.402;4.920;2024-03-08T03:37:43;7.10;99.90
17370;DHT22;8802;52.402;4.920;2024-03-08T03:40:17;7.10;99.90
17370;DHT22;8802;52.402;4.920;2024-03-08T03:42:45;7.10;99.90
17370;DHT22;8802;52.402;4.920;2024-03-08T03:45:13;7.10;99.90
17370;DHT22;8802;52.402;4.920;2024-03-08T03:47:45;7.10;99.90
17370;DHT22;8802;52.402;4.920;2024-03-08T03:50:12;7.10;99.90
17370;DHT22;8802;52.402;4.920;2024-03-08T03:52:39;7.10;99.90
17370;DHT22;8802;52.402;4.920;2024-03-08T03:55:08;7.10;99.90
17370;DHT22;8802;52.402;4.920;2024-03-08T03:57:37;7.10;99.90
17370;DHT22;8802;52.402;4.920;2024-03-08T04:00:06;7.10;99.90
17370;DHT22;8802;52.402;4.920;2024-03-08T04:02:40;7.00;99.90
17370;DHT22;8802;52.402;4.920;2024-03-08T04:05:08;7.00;99.90
17370;DHT22;8802;52.402;4.920;2024-03-08T04:07:36;7.00;99.90
17370;DHT22;8802;52.402;4.920;2024-03-08T04:10:04;7.00;99.90
17370;DHT22;8802;52.402;4.920;2024-03-08T04:12:32;7.00;99.90
17370;DHT22;8802;52.402;4.920;2024-03-08T04:14:59;7.00;99.90
17370;DHT22;8802;52.402;4.920;2024-03-08T04:17:26;6.90;99.90
17370;DHT22;8802;52.402;4.920;2024-03-08T04:19:54;6.90;99.90
17370;DHT22;8802;52.402;4.920;2024-03-08T04:22:21;6.90;99.90
17370;DHT22;8802;52.402;4.920;2024-03-08T04:24:48;6.90;99.90
17370;DHT22;8802;52.402;4.920;2024-03-08T04:27:15;6.90;99.90
17370;DHT22;8802;52.402;4.920;2024-03-08T04:29:42;6.90;99.90
17370;DHT22;8802;52.402;4.920;2024-03-08T04:32:10;6.90;99.90
17370;DHT22;8802;52.402;4.920;2024-03-08T04:34:39;6.90;99.90
17370;DHT22;8802;52.402;4.920;2024-03-08T04:37:07;6.90;99.90
17370;DHT22;8802;52.402;4.920;2024-03-08T04:39:36;6.90;99.90
17370;DHT22;8802;52.402;4.920;2024-03-08T04:42:05;6.90;99.90
17370;DHT22;8802;52.402;4.920;2024-03-08T04:44:35;6.80;99.90
17370;DHT22;8802;52.402;4.920;2024-03-08T04:47:03;6.80;99.90
17370;DHT22;8802;52.402;4.920;2024-03-08T04:49:31;6.90;99.90
17370;DHT22;8802;52.402;4.920;2024-03-08T04:52:00;6.80;99.90
17370;DHT22;8802;52.402;4.920;2024-03-08T04:54:29;6.80;99.90
17370;DHT22;8802;52.402;4.920;2024-03-08T04:56:56;6.90;99.90
17370;DHT22;8802;52.402;4.920;2024-03-08T04:59:25;6.80;99.90
17370;DHT22;8802;52.402;4.920;2024-03-08T05:01:52;6.80;99.90
17370;DHT22;8802;52.402;4.920;2024-03-08T05:04:19;6.80;99.90
17370;DHT22;8802;52.402;4.920;2024-03-08T05:06:47;6.80;99.90
17370;DHT22;8802;52.402;4.920;2024-03-08T05:09:14;6.80;99.90
17370;DHT22;8802;52.402;4.920;2024-03-08T05:11:43;6.80;99.90
17370;DHT22;8802;52.402;4.920;2024-03-08T05:14:11;6.80;99.90
17370;DHT22;8802;52.402;4.920;2024-03-08T05:16:40;6.80;99.90
17370;DHT22;8802;52.402;4.920;2024-03-08T05:19:07;6.70;99.90
17370;DHT22;8802;52.402;4.920;2024-03-08T05:21:34;6.70;99.90
17370;DHT22;8802;52.402;4.920;2024-03-08T05:24:01;6.70;99.90
17370;DHT22;8802;52.402;4.920;2024-03-08T05:26:28;6.70;99.90
17370;DHT22;8802;52.402;4.920;2024-03-08T05:28:57;6.70;99.90
17370;DHT22;8802;52.402;4.920;2024-03-08T05:31:24;6.70;99.90
17370;DHT22;8802;52.402;4.920;2024-03-08T05:33:51;6.70;99.90
17370;DHT22;8802;52.402;4.920;2024-03-08T05:36:20;6.70;99.90
17370;DHT22;8802;52.402;4.920;2024-03-08T05:38:47;6.70;99.90
17370;DHT22;8802;52.402;4.920;2024-03-08T05:41:16;6.70;99.90
17370;DHT22;8802;52.402;4.920;2024-03-08T05:43:43;6.70;99.90
17370;DHT22;8802;52.402;4.920;2024-03-08T05:46:15;6.70;99.90
17370;DHT22;8802;52.402;4.920;2024-03-08T05:48:43;6.70;99.90
17370;DHT22;8802;52.402;4.920;2024-03-08T05:51:10;6.70;99.90
17370;DHT22;8802;52.402;4.920;2024-03-08T05:53:37;6.70;99.90
17370;DHT22;8802;52.402;4.920;2024-03-08T05:56:05;6.70;99.90
17370;DHT22;8802;52.402;4.920;2024-03-08T05:58:32;6.70;99.90
17370;DHT22;8802;52.402;4.920;2024-03-08T06:00:59;6.70;99.90
17370;DHT22;8802;52.402;4.920;2024-03-08T06:03:27;6.70;99.90
17370;DHT22;8802;52.402;4.920;2024-03-08T06:05:54;6.70;99.90
17370;DHT22;8802;52.402;4.920;2024-03-08T06:08:22;6.70;99.90
17370;DHT22;8802;52.402;4.920;2024-03-08T06:10:49;6.70;99.90
17370;DHT22;8802;52.402;4.920;2024-03-08T06:13:18;6.70;99.90
17370;DHT22;8802;52.402;4.920;2024-03-08T06:15:45;6.70;99.90
17370;DHT22;8802;52.402;4.920;2024-03-08T06:18:11;6.60;99.90
17370;DHT22;8802;52.402;4.920;2024-03-08T06:20:41;6.60;99.90
17370;DHT22;8802;52.402;4.920;2024-03-08T06:23:09;6.60;99.90
17370;DHT22;8802;52.402;4.920;2024-03-08T06:25:36;6.70;99.90
17370;DHT22;8802;52.402;4.920;2024-03-08T06:28:03;6.60;99.90
17370;DHT22;8802;52.402;4.920;2024-03-08T06:30:30;6.60;99.90
17370;DHT22;8802;52.402;4.920;2024-03-08T06:32:58;6.60;99.90
17370;DHT22;8802;52.402;4.920;2024-03-08T06:35:24;6.60;99.90
17370;DHT22;8802;52.402;4.920;2024-03-08T06:37:53;6.70;99.90
17370;DHT22;8802;52.402;4.920;2024-03-08T06:40:20;6.60;99.90
17370;DHT22;8802;52.402;4.920;2024-03-08T06:42:47;6.60;99.90
17370;DHT22;8802;52.402;4.920;2024-03-08T06:45:14;6.60;99.90
17370;DHT22;8802;52.402;4.920;2024-03-08T06:47:44;6.60;99.90
17370;DHT22;8802;52.402;4.920;2024-03-08T06:50:12;6.60;99.90
17370;DHT22;8802;52.402;4.920;2024-03-08T06:52:40;6.60;99.90
17370;DHT22;8802;52.402;4.920;2024-03-08T06:55:09;6.60;99.90
17370;DHT22;8802;52.402;4.920;2024-03-08T06:57:38;6.60;99.90
17370;DHT22;8802;52.402;4.920;2024-03-08T07:00:07;6.60;99.90
17370;DHT22;8802;52.402;4.920;2024-03-08T07:02:35;6.60;99.90
17370;DHT22;8802;52.402;4.920;2024-03-08T07:05:02;6.60;99.90
17370;DHT22;8802;52.402;4.920;2024-03-08T07:07:30;6.60;99.90
17370;DHT22;8802;52.402;4.920;2024-03-08T07:09:57;6.60;99.90
17370;DHT22;8802;52.402;4.920;2024-03-08T07:12:26;6.60;99.90
17370;DHT22;8802;52.402;4.920;2024-03-08T07:14:53;6.60;99.90
17370;DHT22;8802;52.402;4.920;2024-03-08T07:17:20;6.60;99.90
17370;DHT22;8802;52.402;4.920;2024-03-08T07:19:47;6.60;99.90
17370;DHT22;8802;52.402;4.920;2024-03-08T07:22:14;6.70;99.90
17370;DHT22;8802;52.402;4.920;2024-03-08T07:24:42;6.70;99.90
17370;DHT22;8802;52.402;4.920;2024-03-08T07:27:37;6.70;99.90
17370;DHT22;8802;52.402;4.920;2024-03-08T07:30:05;6.70;99.90
17370;DHT22;8802;52.402;4.920;2024-03-08T07:32:35;6.70;99.90
17370;DHT22;8802;52.402;4.920;2024-03-08T07:35:03;6.70;99.90
17370;DHT22;8802;52.402;4.920;2024-03-08T07:37:30;6.70;99.90
17370;DHT22;8802;52.402;4.920;2024-03-08T07:39:58;6.80;99.90
17370;DHT22;8802;52.402;4.920;2024-03-08T07:42:25;6.80;99.90
17370;DHT22;8802;52.402;4.920;2024-03-08T07:44:53;6.80;99.90
17370;DHT22;8802;52.402;4.920;2024-03-08T07:47:20;6.80;99.90
17370;DHT22;8802;52.402;4.920;2024-03-08T07:49:47;6.80;99.90
17370;DHT22;8802;52.402;4.920;2024-03-08T07:52:14;6.80;99.90
17370;DHT22;8802;52.402;4.920;2024-03-08T07:54:43;6.90;99.90
17370;DHT22;8802;52.402;4.920;2024-03-08T07:57:10;6.90;99.90
17370;DHT22;8802;52.402;4.920;2024-03-08T07:59:37;6.90;99.90
17370;DHT22;8802;52.402;4.920;2024-03-08T08:02:05;6.90;99.90
17370;DHT22;8802;52.402;4.920;2024-03-08T08:04:32;7.00;99.90
17370;DHT22;8802;52.402;4.920;2024-03-08T08:07:00;7.00;99.90
17370;DHT22;8802;52.402;4.920;2024-03-08T08:09:27;7.00;99.90
17370;DHT22;8802;52.402;4.920;2024-03-08T08:11:59;7.10;99.90
17370;DHT22;8802;52.402;4.920;2024-03-08T08:14:27;7.10;99.90
17370;DHT22;8802;52.402;4.920;2024-03-08T08:16:55;7.20;99.90
17370;DHT22;8802;52.402;4.920;2024-03-08T08:19:25;7.20;99.90
17370;DHT22;8802;52.402;4.920;2024-03-08T08:21:52;7.30;99.90
17370;DHT22;8802;52.402;4.920;2024-03-08T08:24:19;7.30;99.90
17370;DHT22;8802;52.402;4.920;2024-03-08T08:26:47;7.40;99.90
17370;DHT22;8802;52.402;4.920;2024-03-08T08:29:14;7.50;99.90
17370;DHT22;8802;52.402;4.920;2024-03-08T08:31:41;7.60;99.90
17370;DHT22;8802;52.402;4.920;2024-03-08T08:34:09;7.70;99.90
17370;DHT22;8802;52.402;4.920;2024-03-08T08:36:38;7.80;99.90
17370;DHT22;8802;52.402;4.920;2024-03-08T08:39:05;7.90;99.90
17370;DHT22;8802;52.402;4.920;2024-03-08T08:41:38;8.00;99.90
17370;DHT22;8802;52.402;4.920;2024-03-08T08:44:07;8.10;99.90
17370;DHT22;8802;52.402;4.920;2024-03-08T08:46:35;8.20;99.90
17370;DHT22;8802;52.402;4.920;2024-03-08T08:49:03;8.30;99.90
17370;DHT22;8802;52.402;4.920;2024-03-08T08:51:30;8.40;99.90
17370;DHT22;8802;52.402;4.920;2024-03-08T08:54:00;8.50;99.90
17370;DHT22;8802;52.402;4.920;2024-03-08T08:56:27;8.60;99.90
17370;DHT22;8802;52.402;4.920;2024-03-08T08:58:55;8.60;99.90
17370;DHT22;8802;52.402;4.920;2024-03-08T09:01:23;8.80;99.90
17370;DHT22;8802;52.402;4.920;2024-03-08T09:03:50;8.80;99.90
17370;DHT22;8802;52.402;4.920;2024-03-08T09:06:17;8.90;99.90
17370;DHT22;8802;52.402;4.920;2024-03-08T09:08:44;9.00;99.90
17370;DHT22;8802;52.402;4.920;2024-03-08T09:11:13;9.10;99.90
17370;DHT22;8802;52.402;4.920;2024-03-08T09:13:40;9.10;99.90
17370;DHT22;8802;52.402;4.920;2024-03-08T09:16:07;9.20;99.90
17370;DHT22;8802;52.402;4.920;2024-03-08T09:18:36;9.30;99.90
17370;DHT22;8802;52.402;4.920;2024-03-08T09:21:03;9.40;99.90
17370;DHT22;8802;52.402;4.920;2024-03-08T09:23:35;9.50;99.90
17370;DHT22;8802;52.402;4.920;2024-03-08T09:26:02;9.50;99.90
17370;DHT22;8802;52.402;4.920;2024-03-08T09:28:31;9.60;99.90
17370;DHT22;8802;52.402;4.920;2024-03-08T09:30:58;9.60;99.90
17370;DHT22;8802;52.402;4.920;2024-03-08T09:33:26;9.70;99.90
17370;DHT22;8802;52.402;4.920;2024-03-08T09:35:54;9.80;99.90
17370;DHT22;8802;52.402;4.920;2024-03-08T09:38:23;9.90;99.90
17370;DHT22;8802;52.402;4.920;2024-03-08T09:40:50;9.90;99.90
17370;DHT22;8802;52.402;4.920;2024-03-08T09:43:18;10.00;99.90
17370;DHT22;8802;52.402;4.920;2024-03-08T09:45:49;10.00;99.70
17370;DHT22;8802;52.402;4.920;2024-03-08T09:48:17;10.10;99.70
17370;DHT22;8802;52.402;4.920;2024-03-08T09:50:46;10.20;99.50
17370;DHT22;8802;52.402;4.920;2024-03-08T09:53:13;10.30;99.50
17370;DHT22;8802;52.402;4.920;2024-03-08T09:55:41;10.30;99.50
17370;DHT22;8802;52.402;4.920;2024-03-08T09:58:12;10.40;99.60
17370;DHT22;8802;52.402;4.920;2024-03-08T10:01:03;10.50;99.50
17370;DHT22;8802;52.402;4.920;2024-03-08T10:03:32;10.60;99.10
17370;DHT22;8802;52.402;4.920;2024-03-08T10:06:00;10.70;99.10
17370;DHT22;8802;52.402;4.920;2024-03-08T10:08:27;10.70;99.00
17370;DHT22;8802;52.402;4.920;2024-03-08T10:10:55;10.80;99.10
17370;DHT22;8802;52.402;4.920;2024-03-08T10:13:25;10.90;99.00
17370;DHT22;8802;52.402;4.920;2024-03-08T10:15:52;11.00;99.00
17370;DHT22;8802;52.402;4.920;2024-03-08T10:18:21;11.00;98.60
17370;DHT22;8802;52.402;4.920;2024-03-08T10:21:02;11.00;98.60
17370;DHT22;8802;52.402;4.920;2024-03-08T10:23:31;11.10;98.60
17370;DHT22;8802;52.402;4.920;2024-03-08T10:26:09;11.20;98.70
17370;DHT22;8802;52.402;4.920;2024-03-08T10:28:36;11.20;98.40
17370;DHT22;8802;52.402;4.920;2024-03-08T10:31:04;11.30;98.50
17370;DHT22;8802;52.402;4.920;2024-03-08T10:33:32;11.30;98.30
17370;DHT22;8802;52.402;4.920;2024-03-08T10:36:00;11.40;98.30
17370;DHT22;8802;52.402;4.920;2024-03-08T10:38:31;11.50;98.20
17370;DHT22;8802;52.402;4.920;2024-03-08T10:41:00;11.50;98.20
17370;DHT22;8802;52.402;4.920;2024-03-08T10:43:31;11.60;98.10
17370;DHT22;8802;52.402;4.920;2024-03-08T10:46:13;11.70;97.60
17370;DHT22;8802;52.402;4.920;2024-03-08T10:48:45;11.80;97.50
17370;DHT22;8802;52.402;4.920;2024-03-08T10:51:16;11.80;97.70
17370;DHT22;8802;52.402;4.920;2024-03-08T10:53:44;11.90;97.70
17370;DHT22;8802;52.402;4.920;2024-03-08T10:56:13;12.00;97.50
17370;DHT22;8802;52.402;4.920;2024-03-08T10:58:41;12.00;97.50
17370;DHT22;8802;52.402;4.920;2024-03-08T11:01:09;12.10;97.90
17370;DHT22;8802;52.402;4.920;2024-03-08T11:03:48;12.10;97.40
17370;DHT22;8802;52.402;4.920;2024-03-08T11:06:23;12.20;97.10
17370;DHT22;8802;52.402;4.920;2024-03-08T11:08:50;12.30;97.50
17370;DHT22;8802;52.402;4.920;2024-03-08T11:11:27;12.40;97.50
17370;DHT22;8802;52.402;4.920;2024-03-08T11:13:56;12.50;97.30
17370;DHT22;8802;52.402;4.920;2024-03-08T11:16:39;12.60;97.30
17370;DHT22;8802;52.402;4.920;2024-03-08T11:19:26;12.70;97.10
17370;DHT22;8802;52.402;4.920;2024-03-08T11:21:58;12.80;96.60
17370;DHT22;8802;52.402;4.920;2024-03-08T11:24:25;12.90;96.70
17370;DHT22;8802;52.402;4.920;2024-03-08T11:26:57;12.90;96.80
17370;DHT22;8802;52.402;4.920;2024-03-08T11:29:37;13.00;96.60
17370;DHT22;8802;52.402;4.920;2024-03-08T11:32:08;13.10;96.30
17370;DHT22;8802;52.402;4.920;2024-03-08T11:34:39;13.10;96.50
17370;DHT22;8802;52.402;4.920;2024-03-08T11:37:12;13.20;96.20
17370;DHT22;8802;52.402;4.920;2024-03-08T11:39:41;13.30;96.20
17370;DHT22;8802;52.402;4.920;2024-03-08T11:42:13;13.30;96.10
17370;DHT22;8802;52.402;4.920;2024-03-08T11:44:41;13.30;96.00
17370;DHT22;8802;52.402;4.920;2024-03-08T11:47:10;13.30;95.70
17370;DHT22;8802;52.402;4.920;2024-03-08T11:49:38;13.40;95.30
17370;DHT22;8802;52.402;4.920;2024-03-08T11:52:11;13.40;95.20
17370;DHT22;8802;52.402;4.920;2024-03-08T11:54:39;13.40;95.40
17370;DHT22;8802;52.402;4.920;2024-03-08T11:57:06;13.40;95.90
17370;DHT22;8802;52.402;4.920;2024-03-08T11:59:35;13.40;95.80
17370;DHT22;8802;52.402;4.920;2024-03-08T12:02:03;13.40;95.60
17370;DHT22;8802;52.402;4.920;2024-03-08T12:04:32;13.50;95.60
17370;DHT22;8802;52.402;4.920;2024-03-08T12:07:03;13.50;95.70
17370;DHT22;8802;52.402;4.920;2024-03-08T12:09:34;13.50;95.80
17370;DHT22;8802;52.402;4.920;2024-03-08T12:12:02;13.50;95.80
17370;DHT22;8802;52.402;4.920;2024-03-08T12:14:30;13.60;95.60
17370;DHT22;8802;52.402;4.920;2024-03-08T12:16:58;13.50;95.60
17370;DHT22;8802;52.402;4.920;2024-03-08T12:19:26;13.60;95.30
17370;DHT22;8802;52.402;4.920;2024-03-08T12:21:54;13.60;95.30
17370;DHT22;8802;52.402;4.920;2024-03-08T12:24:23;13.60;95.30
17370;DHT22;8802;52.402;4.920;2024-03-08T12:26:50;13.60;95.60
17370;DHT22;8802;52.402;4.920;2024-03-08T12:29:22;13.60;95.60
17370;DHT22;8802;52.402;4.920;2024-03-08T12:31:54;13.60;95.50
17370;DHT22;8802;52.402;4.920;2024-03-08T12:34:21;13.60;95.60
17370;DHT22;8802;52.402;4.920;2024-03-08T12:36:49;13.60;95.40
17370;DHT22;8802;52.402;4.920;2024-03-08T12:39:17;13.60;95.60
17370;DHT22;8802;52.402;4.920;2024-03-08T12:41:49;13.60;95.70
17370;DHT22;8802;52.402;4.920;2024-03-08T12:44:17;13.60;95.70
17370;DHT22;8802;52.402;4.920;2024-03-08T12:46:44;13.70;95.60
17370;DHT22;8802;52.402;4.920;2024-03-08T12:49:11;13.60;95.80
17370;DHT22;8802;52.402;4.920;2024-03-08T12:51:38;13.70;95.70
17370;DHT22;8802;52.402;4.920;2024-03-08T12:54:07;13.60;95.60
17370;DHT22;8802;52.402;4.920;2024-03-08T12:56:35;13.70;95.60
17370;DHT22;8802;52.402;4.920;2024-03-08T12:59:05;13.70;95.60
17370;DHT22;8802;52.402;4.920;2024-03-08T13:01:32;13.70;95.70
17370;DHT22;8802;52.402;4.920;2024-03-08T13:03:59;13.70;95.60
17370;DHT22;8802;52.402;4.920;2024-03-08T13:06:27;13.70;95.20
17370;DHT22;8802;52.402;4.920;2024-03-08T13:08:54;13.70;95.20
17370;DHT22;8802;52.402;4.920;2024-03-08T13:11:22;13.70;94.90
17370;DHT22;8802;52.402;4.920;2024-03-08T13:13:50;13.80;94.90
17370;DHT22;8802;52.402;4.920;2024-03-08T13:16:19;13.80;94.80
17370;DHT22;8802;52.402;4.920;2024-03-08T13:18:46;13.80;94.80
17370;DHT22;8802;52.402;4.920;2024-03-08T13:21:15;13.80;94.70
17370;DHT22;8802;52.402;4.920;2024-03-08T13:23:45;13.80;94.90
17370;DHT22;8802;52.402;4.920;2024-03-08T13:26:15;13.80;94.70
17370;DHT22;8802;52.402;4.920;2024-03-08T13:28:42;13.70;94.60
17370;DHT22;8802;52.402;4.920;2024-03-08T13:31:09;13.70;95.00
17370;DHT22;8802;52.402;4.920;2024-03-08T13:33:38;13.80;94.50
17370;DHT22;8802;52.402;4.920;2024-03-08T13:36:07;13.80;94.50
17370;DHT22;8802;52.402;4.920;2024-03-08T13:38:41;13.80;94.40
17370;DHT22;8802;52.402;4.920;2024-03-08T13:41:08;13.70;94.30
17370;DHT22;8802;52.402;4.920;2024-03-08T13:43:35;13.70;94.50
17370;DHT22;8802;52.402;4.920;2024-03-08T13:46:03;13.70;94.60
17370;DHT22;8802;52.402;4.920;2024-03-08T13:48:30;13.70;94.30
17370;DHT22;8802;52.402;4.920;2024-03-08T13:50:59;13.70;94.50
17370;DHT22;8802;52.402;4.920;2024-03-08T13:53:27;13.70;94.10
17370;DHT22;8802;52.402;4.920;2024-03-08T13:55:55;13.70;94.00
17370;DHT22;8802;52.402;4.920;2024-03-08T13:58:22;13.70;94.10
17370;DHT22;8802;52.402;4.920;2024-03-08T14:00:49;13.70;94.30
17370;DHT22;8802;52.402;4.920;2024-03-08T14:03:17;13.70;94.40
17370;DHT22;8802;52.402;4.920;2024-03-08T14:05:44;13.70;94.20
17370;DHT22;8802;52.402;4.920;2024-03-08T14:08:13;13.70;93.80
17370;DHT22;8802;52.402;4.920;2024-03-08T14:10:41;13.70;93.60
17370;DHT22;8802;52.402;4.920;2024-03-08T14:13:09;13.70;93.20
17370;DHT22;8802;52.402;4.920;2024-03-08T14:15:37;13.60;92.90
17370;DHT22;8802;52.402;4.920;2024-03-08T14:18:07;13.60;92.80
17370;DHT22;8802;52.402;4.920;2024-03-08T14:20:35;13.70;92.80
17370;DHT22;8802;52.402;4.920;2024-03-08T14:23:01;13.60;93.00
17370;DHT22;8802;52.402;4.920;2024-03-08T14:25:33;13.60;92.90
17370;DHT22;8802;52.402;4.920;2024-03-08T14:28:00;13.60;92.80
17370;DHT22;8802;52.402;4.920;2024-03-08T14:30:29;13.60;92.90
17370;DHT22;8802;52.402;4.920;2024-03-08T14:33:01;13.60;92.60
17370;DHT22;8802;52.402;4.920;2024-03-08T14:35:28;13.60;92.40
17370;DHT22;8802;52.402;4.920;2024-03-08T14:37:56;13.60;92.60
17370;DHT22;8802;52.402;4.920;2024-03-08T14:40:24;13.60;92.40
17370;DHT22;8802;52.402;4.920;2024-03-08T14:42:53;13.60;92.50
17370;DHT22;8802;52.402;4.920;2024-03-08T14:45:21;13.60;92.50
17370;DHT22;8802;52.402;4.920;2024-03-08T14:47:50;13.60;92.70
17370;DHT22;8802;52.402;4.920;2024-03-08T14:50:17;13.60;92.60
17370;DHT22;8802;52.402;4.920;2024-03-08T14:52:45;13.60;92.70
17370;DHT22;8802;52.402;4.920;2024-03-08T14:55:14;13.60;92.70
17370;DHT22;8802;52.402;4.920;2024-03-08T14:57:41;13.60;92.60
17370;DHT22;8802;52.402;4.920;2024-03-08T15:00:13;13.60;92.60
17370;DHT22;8802;52.402;4.920;2024-03-08T15:02:43;13.60;92.60
17370;DHT22;8802;52.402;4.920;2024-03-08T15:05:10;13.60;92.90
17370;DHT22;8802;52.402;4.920;2024-03-08T15:07:39;13.50;92.40
17370;DHT22;8802;52.402;4.920;2024-03-08T15:10:07;13.50;92.40
17370;DHT22;8802;52.402;4.920;2024-03-08T15:12:37;13.50;92.60
17370;DHT22;8802;52.402;4.920;2024-03-08T15:15:07;13.50;92.80
17370;DHT22;8802;52.402;4.920;2024-03-08T15:17:37;13.50;93.00
17370;DHT22;8802;52.402;4.920;2024-03-08T15:20:06;13.50;92.90
17370;DHT22;8802;52.402;4.920;2024-03-08T15:22:41;13.40;93.00
17370;DHT22;8802;52.402;4.920;2024-03-08T15:25:09;13.40;93.00
17370;DHT22;8802;52.402;4.920;2024-03-08T15:27:39;13.40;93.10
17370;DHT22;8802;52.402;4.920;2024-03-08T15:30:07;13.40;93.10
17370;DHT22;8802;52.402;4.920;2024-03-08T15:32:41;13.40;93.10
17370;DHT22;8802;52.402;4.920;2024-03-08T15:35:10;13.30;93.30
17370;DHT22;8802;52.402;4.920;2024-03-08T15:37:40;13.30;93.40
17370;DHT22;8802;52.402;4.920;2024-03-08T15:40:10;13.30;93.50
17370;DHT22;8802;52.402;4.920;2024-03-08T15:42:51;13.30;93.30
17370;DHT22;8802;52.402;4.920;2024-03-08T15:45:21;13.30;93.40
17370;DHT22;8802;52.402;4.920;2024-03-08T15:47:51;13.30;93.40
17370;DHT22;8802;52.402;4.920;2024-03-08T15:50:18;13.20;93.40
17370;DHT22;8802;52.402;4.920;2024-03-08T15:52:49;13.20;93.50
17370;DHT22;8802;52.402;4.920;2024-03-08T15:55:16;13.20;93.40
17370;DHT22;8802;52.402;4.920;2024-03-08T15:57:46;13.20;93.50
17370;DHT22;8802;52.402;4.920;2024-03-08T16:00:15;13.20;93.70
17370;DHT22;8802;52.402;4.920;2024-03-08T16:03:00;13.10;93.80